createdAt,value
2023-03-26T00:02:35.597Z,10.97
2023-03-26T00:08:02.187Z,10.94
2023-03-26T00:16:08.607Z,10.40
2023-03-26T00:18:58.554Z,10.57
2023-03-26T00:32:36.272Z,11.09
2023-03-26T00:35:02.715Z,11.13
2023-03-26T00:40:19.119Z,11.17
2023-03-26T00:48:17.696Z,11.05
2023-03-26T00:56:23.635Z,10.79
2023-03-26T01:09:43.112Z,10.67
2023-03-26T01:12:13.465Z,10.67
2023-03-26T01:14:39.859Z,10.72
2023-03-26T01:17:06.272Z,10.72
2023-03-26T01:19:33.250Z,10.54
2023-03-26T01:33:17.362Z,10.48
2023-03-26T01:49:12.909Z,10.41
2023-03-26T02:30:08.844Z,10.53
2023-03-26T02:40:54.590Z,10.18
2023-03-26T02:43:21.010Z,10.10
2023-03-26T02:45:47.581Z,9.96
2023-03-26T02:48:14.071Z,9.96
2023-03-26T02:50:44.556Z,9.95
2023-03-26T02:53:33.345Z,9.81
2023-03-26T02:58:41.587Z,9.89
2023-03-26T03:01:13.395Z,9.90
2023-03-26T03:03:47.867Z,9.91
2023-03-26T03:09:20.409Z,10.06
2023-03-26T03:11:47.365Z,10.15
2023-03-26T03:14:14.518Z,10.13
2023-03-26T03:16:41.232Z,10.15
2023-03-26T03:19:32.035Z,10.30
2023-03-26T03:21:58.456Z,10.21
2023-03-26T03:24:24.877Z,9.98
2023-03-26T03:26:51.317Z,9.92
2023-03-26T03:29:18.230Z,9.74
2023-03-26T03:31:44.665Z,9.63
2023-03-26T03:36:58.584Z,9.31
2023-03-26T03:39:50.350Z,9.20
2023-03-26T03:42:23.795Z,9.23
2023-03-26T03:44:51.674Z,9.21
2023-03-26T03:47:20.289Z,9.00
2023-03-26T03:49:46.727Z,8.94
2023-03-26T03:52:15.690Z,9.03
2023-03-26T03:54:42.122Z,9.17
2023-03-26T03:57:08.674Z,9.19
2023-03-26T03:59:35.163Z,9.00
2023-03-26T04:02:01.572Z,8.96
2023-03-26T04:04:29.923Z,9.02
2023-03-26T04:06:56.866Z,9.03
2023-03-26T04:09:26.177Z,9.00
2023-03-26T04:11:55.585Z,8.90
2023-03-26T04:14:24.185Z,8.84
2023-03-26T04:16:53.487Z,9.02
2023-03-26T04:19:21.831Z,9.11
2023-03-26T04:21:49.450Z,9.14
2023-03-26T04:24:18.004Z,9.17
2023-03-26T04:26:50.543Z,9.21
2023-03-26T04:29:17.236Z,9.13
2023-03-26T04:31:43.661Z,9.17
2023-03-26T04:34:10.116Z,9.10
2023-03-26T04:36:36.740Z,9.18
2023-03-26T04:39:06.675Z,9.23
2023-03-26T04:41:36.413Z,9.19
2023-03-26T04:44:06.942Z,9.25
2023-03-26T04:46:33.896Z,9.34
2023-03-26T04:49:00.618Z,9.36
2023-03-26T04:51:27.321Z,9.43
2023-03-26T04:53:54.208Z,9.40
2023-03-26T04:56:20.623Z,9.38
2023-03-26T04:58:47.171Z,9.45
2023-03-26T05:01:13.776Z,9.33
2023-03-26T05:03:40.276Z,9.35
2023-03-26T05:06:06.681Z,9.26
2023-03-26T05:08:33.190Z,9.12
2023-03-26T05:11:01.323Z,9.08
2023-03-26T05:13:29.025Z,9.01
2023-03-26T05:15:55.448Z,8.95
2023-03-26T05:18:21.956Z,8.85
2023-03-26T05:20:49.665Z,8.84
2023-03-26T05:23:16.143Z,8.67
2023-03-26T05:25:42.842Z,8.57
2023-03-26T05:28:09.268Z,8.46
2023-03-26T05:33:17.701Z,8.37
2023-03-26T05:35:49.740Z,8.40
2023-03-26T05:41:15.312Z,8.24
2023-03-26T05:43:45.938Z,8.32
2023-03-26T05:46:16.809Z,8.34
2023-03-26T05:51:46.634Z,8.40
2023-03-26T05:54:15.936Z,8.48
2023-03-26T06:02:30.455Z,8.52
2023-03-26T06:07:48.613Z,8.63
2023-03-26T06:15:41.935Z,8.87
2023-03-26T06:26:30.192Z,9.03
2023-03-26T06:34:23.437Z,9.04
2023-03-26T06:37:26.431Z,8.97
2023-03-26T06:53:34.581Z,8.92
2023-03-26T06:56:08.495Z,8.90
2023-03-26T07:14:57.041Z,8.95
2023-03-26T07:20:12.715Z,9.12
2023-03-26T07:22:48.655Z,9.17
2023-03-26T07:30:39.673Z,9.51
2023-03-26T07:38:44.946Z,9.49
2023-03-26T07:41:15.981Z,9.69
2023-03-26T07:47:00.641Z,9.50
2023-03-26T07:49:50.632Z,9.53
2023-03-26T07:52:21.686Z,8.95
2023-03-26T07:54:55.478Z,9.13
2023-03-26T07:57:34.984Z,9.22
2023-03-26T08:00:15.945Z,9.11
2023-03-26T08:02:53.181Z,9.14
2023-03-26T08:05:25.349Z,9.17
2023-03-26T08:07:56.110Z,9.06
2023-03-26T08:10:33.976Z,9.22
2023-03-26T08:13:14.692Z,9.27
2023-03-26T08:15:42.179Z,9.40
2023-03-26T08:18:09.821Z,9.43
2023-03-26T08:20:38.361Z,9.46
2023-03-26T08:23:05.930Z,9.55
2023-03-26T08:25:33.740Z,9.63
2023-03-26T08:28:01.095Z,9.64
2023-03-26T08:30:27.684Z,9.85
2023-03-26T08:32:55.306Z,9.83
2023-03-26T08:35:22.918Z,9.82
2023-03-26T08:37:50.471Z,9.86
2023-03-26T08:40:18.125Z,10.01
2023-03-26T08:42:45.642Z,10.02
2023-03-26T08:45:13.234Z,9.79
2023-03-26T08:47:39.890Z,9.76
2023-03-26T08:50:07.433Z,9.98
2023-03-26T08:52:34.019Z,9.81
2023-03-26T08:55:02.623Z,9.96
2023-03-26T08:57:30.204Z,10.16
2023-03-26T08:59:57.781Z,10.34
2023-03-26T09:02:24.366Z,10.27
2023-03-26T09:04:51.223Z,10.30
2023-03-26T09:07:18.570Z,10.33
2023-03-26T09:09:46.155Z,10.04
2023-03-26T09:12:13.769Z,10.11
2023-03-26T09:14:41.353Z,10.21
2023-03-26T09:17:07.940Z,10.18
2023-03-26T09:19:35.533Z,10.33
2023-03-26T09:22:04.153Z,10.41
2023-03-26T09:24:30.828Z,10.46
2023-03-26T09:26:58.301Z,10.49
2023-03-26T09:29:26.911Z,10.62
2023-03-26T09:31:54.564Z,10.77
2023-03-26T09:34:22.077Z,10.73
2023-03-26T09:36:49.680Z,10.86
2023-03-26T09:39:17.252Z,11.01
2023-03-26T09:41:43.864Z,11.05
2023-03-26T09:44:10.730Z,11.23
2023-03-26T09:46:38.041Z,11.39
2023-03-26T09:49:04.907Z,11.52
2023-03-26T09:51:32.223Z,11.48
2023-03-26T09:53:59.813Z,11.65
2023-03-26T09:56:28.796Z,11.91
2023-03-26T09:58:57.050Z,12.14
2023-03-26T10:01:25.577Z,12.30
2023-03-26T10:03:53.168Z,12.44
2023-03-26T10:06:22.430Z,12.55
2023-03-26T10:08:49.369Z,12.70
2023-03-26T10:11:16.957Z,12.70
2023-03-26T10:13:45.555Z,12.65
2023-03-26T10:16:13.219Z,12.75
2023-03-26T10:18:40.765Z,12.75
2023-03-26T10:21:08.366Z,12.86
2023-03-26T10:23:35.949Z,12.95
2023-03-26T10:26:04.537Z,13.08
2023-03-26T10:28:32.165Z,13.16
2023-03-26T10:31:00.793Z,12.96
2023-03-26T10:33:28.374Z,13.08
2023-03-26T10:35:55.057Z,12.98
2023-03-26T10:38:22.567Z,12.87
2023-03-26T10:40:50.230Z,12.77
2023-03-26T10:43:17.756Z,12.84
2023-03-26T10:45:44.698Z,12.82
2023-03-26T10:48:12.954Z,13.01
2023-03-26T10:50:40.538Z,13.45
2023-03-26T10:53:09.747Z,13.40
2023-03-26T10:55:36.731Z,13.43
2023-03-26T10:58:03.352Z,13.04
2023-03-26T11:00:30.935Z,13.15
2023-03-26T11:02:57.991Z,13.42
2023-03-26T11:05:25.138Z,13.32
2023-03-26T11:07:52.717Z,12.99
2023-03-26T11:10:20.306Z,12.80
2023-03-26T11:12:49.022Z,13.14
2023-03-26T11:15:18.212Z,13.11
2023-03-26T11:17:45.115Z,13.24
2023-03-26T11:20:12.700Z,13.47
2023-03-26T11:22:39.262Z,13.46
2023-03-26T11:25:06.879Z,13.72
2023-03-26T11:27:33.453Z,13.83
2023-03-26T11:30:01.041Z,13.49
2023-03-26T11:32:28.687Z,13.60
2023-03-26T11:34:56.245Z,13.38
2023-03-26T11:37:23.812Z,13.50
2023-03-26T11:39:53.895Z,13.52
2023-03-26T11:42:24.066Z,13.67
2023-03-26T11:44:51.629Z,13.65
2023-03-26T11:47:18.340Z,13.52
2023-03-26T11:49:46.818Z,13.40
2023-03-26T11:52:14.402Z,13.52
2023-03-26T11:54:42.001Z,13.52
2023-03-26T11:57:09.677Z,13.33
2023-03-26T11:59:48.840Z,13.25
2023-03-26T12:02:20.883Z,13.02
2023-03-26T12:04:48.432Z,12.94
2023-03-26T12:07:16.004Z,13.08
2023-03-26T12:09:43.584Z,13.20
2023-03-26T12:12:10.193Z,13.34
2023-03-26T12:14:37.775Z,12.91
2023-03-26T12:17:06.653Z,12.94
2023-03-26T12:19:33.965Z,12.99
2023-03-26T12:22:01.557Z,13.27
2023-03-26T12:24:30.161Z,13.39
2023-03-26T12:26:57.750Z,13.24
2023-03-26T12:29:25.396Z,12.77
2023-03-26T12:31:53.000Z,12.63
2023-03-26T12:34:22.042Z,12.31
2023-03-26T12:36:50.131Z,11.82
2023-03-26T12:40:08.827Z,11.65
2023-03-26T12:44:42.836Z,11.40
2023-03-26T12:44:58.936Z,11.09
2023-03-26T12:47:58.926Z,11.09
2023-03-26T12:50:13.388Z,10.95
2023-03-26T12:52:40.232Z,10.77
2023-03-26T12:55:12.374Z,10.33
2023-03-26T12:57:39.097Z,9.22
2023-03-26T13:00:05.738Z,7.74
2023-03-26T13:02:32.808Z,8.12
2023-03-26T13:05:05.502Z,8.45
2023-03-26T13:07:34.521Z,8.80
2023-03-26T13:10:03.131Z,8.74
2023-03-26T13:12:30.721Z,8.04
2023-03-26T13:14:59.321Z,7.46
2023-03-26T13:17:25.935Z,7.44
2023-03-26T13:19:53.508Z,7.69
2023-03-26T13:22:21.107Z,8.27
2023-03-26T13:24:48.709Z,8.63
2023-03-26T13:27:16.289Z,8.96
2023-03-26T13:29:43.927Z,9.11
2023-03-26T13:32:12.493Z,9.35
2023-03-26T13:34:40.094Z,9.60
2023-03-26T13:37:07.781Z,9.90
2023-03-26T13:39:35.311Z,10.14
2023-03-26T13:42:01.921Z,10.38
2023-03-26T13:44:29.500Z,10.53
2023-03-26T13:46:56.395Z,10.52
2023-03-26T13:49:24.680Z,10.25
2023-03-26T13:51:52.261Z,10.17
2023-03-26T13:54:19.854Z,10.08
2023-03-26T13:56:46.452Z,10.08
2023-03-26T13:59:14.050Z,9.47
2023-03-26T14:01:42.899Z,9.61
2023-03-26T14:04:11.218Z,9.78
2023-03-26T14:06:37.804Z,9.87
2023-03-26T14:09:05.387Z,9.93
2023-03-26T14:11:31.989Z,10.01
2023-03-26T14:14:00.602Z,10.08
2023-03-26T14:16:28.204Z,10.05
2023-03-26T14:18:56.787Z,10.12
2023-03-26T14:21:24.363Z,10.14
2023-03-26T14:23:52.953Z,9.94
2023-03-26T14:26:21.560Z,10.01
2023-03-26T14:28:50.156Z,9.45
2023-03-26T14:31:17.774Z,9.61
2023-03-26T14:33:45.348Z,9.96
2023-03-26T14:36:14.211Z,10.18
2023-03-26T14:38:41.598Z,10.42
2023-03-26T14:41:09.192Z,10.72
2023-03-26T14:43:35.695Z,10.92
2023-03-26T14:46:03.377Z,11.20
2023-03-26T14:48:29.998Z,11.59
2023-03-26T14:50:57.623Z,11.55
2023-03-26T14:53:25.124Z,11.80
2023-03-26T14:55:52.735Z,11.98
2023-03-26T14:58:21.592Z,11.92
2023-03-26T15:00:50.620Z,11.99
2023-03-26T15:03:17.547Z,11.93
2023-03-26T15:05:46.847Z,11.85
2023-03-26T15:08:13.784Z,11.66
2023-03-26T15:10:40.724Z,11.66
2023-03-26T15:13:08.916Z,11.67
2023-03-26T15:15:37.466Z,11.62
2023-03-26T15:18:04.050Z,11.53
2023-03-26T15:20:30.673Z,11.54
2023-03-26T15:22:58.246Z,11.55
2023-03-26T15:25:24.863Z,11.51
2023-03-26T15:27:51.465Z,11.55
2023-03-26T15:30:20.049Z,11.34
2023-03-26T15:32:46.681Z,11.10
2023-03-26T15:35:14.233Z,11.11
2023-03-26T15:37:41.836Z,10.93
2023-03-26T15:40:09.433Z,11.03
2023-03-26T15:42:37.894Z,11.13
2023-03-26T15:45:05.316Z,11.23
2023-03-26T15:47:32.328Z,11.23
2023-03-26T15:49:59.877Z,11.16
2023-03-26T15:52:26.451Z,11.07
2023-03-26T15:54:56.045Z,10.93
2023-03-26T15:57:22.654Z,10.72
2023-03-26T15:59:49.236Z,10.74
2023-03-26T16:02:16.856Z,10.70
2023-03-26T16:04:50.693Z,10.42
2023-03-26T16:07:20.036Z,10.63
2023-03-26T16:09:47.653Z,10.49
2023-03-26T16:12:15.211Z,10.60
2023-03-26T16:14:42.834Z,10.61
2023-03-26T16:17:10.394Z,10.53
2023-03-26T16:19:36.994Z,10.55
2023-03-26T16:22:03.423Z,10.67
2023-03-26T16:24:30.172Z,10.73
2023-03-26T16:26:57.830Z,10.76
2023-03-26T16:29:25.369Z,10.92
2023-03-26T16:31:52.237Z,11.02
2023-03-26T16:34:19.529Z,11.11
2023-03-26T16:36:46.140Z,10.84
2023-03-26T16:39:13.022Z,10.78
2023-03-26T16:41:39.462Z,10.72
2023-03-26T16:44:06.923Z,10.60
2023-03-26T16:46:34.575Z,10.34
2023-03-26T16:49:02.115Z,10.08
2023-03-26T16:51:28.704Z,9.95
2023-03-26T16:53:57.758Z,9.75
2023-03-26T16:56:25.921Z,9.82
2023-03-26T16:58:53.477Z,9.93
2023-03-26T17:01:22.119Z,10.09
2023-03-26T17:03:49.715Z,10.15
2023-03-26T17:06:16.654Z,9.93
2023-03-26T17:08:43.889Z,9.85
2023-03-26T17:11:10.487Z,9.68
2023-03-26T17:13:36.938Z,9.70
2023-03-26T17:16:03.358Z,9.70
2023-03-26T17:18:31.378Z,9.74
2023-03-26T17:20:58.928Z,9.68
2023-03-26T17:23:26.408Z,9.75
2023-03-26T17:25:53.011Z,9.72
2023-03-26T17:28:20.631Z,9.64
2023-03-26T17:30:48.237Z,9.56
2023-03-26T17:33:14.805Z,9.62
2023-03-26T17:35:42.419Z,9.55
2023-03-26T17:38:09.987Z,9.59
2023-03-26T17:40:37.618Z,9.58
2023-03-26T17:43:05.173Z,9.53
2023-03-26T17:45:32.811Z,9.47
2023-03-26T17:48:00.399Z,9.51
2023-03-26T17:50:27.929Z,9.44
2023-03-26T17:52:54.919Z,9.36
2023-03-26T17:55:22.120Z,9.43
2023-03-26T17:57:48.721Z,9.42
2023-03-26T18:00:16.329Z,9.42
2023-03-26T18:02:43.969Z,9.25
2023-03-26T18:05:11.494Z,9.19
2023-03-26T18:07:37.911Z,9.21
2023-03-26T18:10:04.385Z,9.17
2023-03-26T18:12:30.818Z,9.18
2023-03-26T18:14:57.867Z,9.15
2023-03-26T18:17:25.500Z,9.09
2023-03-26T18:19:53.042Z,9.11
2023-03-26T18:22:20.651Z,9.07
2023-03-26T18:24:47.127Z,8.98
2023-03-26T18:27:13.823Z,9.11
2023-03-26T18:29:40.407Z,9.08
2023-03-26T18:32:08.001Z,9.06
2023-03-26T18:34:35.596Z,9.04
2023-03-26T18:37:02.186Z,9.12
2023-03-26T18:39:28.618Z,9.11
2023-03-26T18:41:55.049Z,9.06
2023-03-26T18:44:21.946Z,8.83
2023-03-26T18:46:48.517Z,8.69
2023-03-26T18:49:16.202Z,7.69
2023-03-26T18:51:56.051Z,7.56
2023-03-26T18:54:24.396Z,7.72
2023-03-26T18:56:51.021Z,6.99
2023-03-26T18:59:21.459Z,6.99
2023-03-26T19:01:50.383Z,6.89
2023-03-26T19:04:19.371Z,7.13
2023-03-26T19:06:46.378Z,7.24
2023-03-26T19:09:27.923Z,7.42
2023-03-26T19:11:57.662Z,7.39
2023-03-26T19:14:25.240Z,7.23
2023-03-26T19:16:51.928Z,7.28
2023-03-26T19:19:19.465Z,7.22
2023-03-26T19:21:47.066Z,7.06
2023-03-26T19:24:14.644Z,7.11
2023-03-26T19:26:42.234Z,7.26
2023-03-26T19:29:08.996Z,7.41
2023-03-26T19:31:36.491Z,7.42
2023-03-26T19:34:04.043Z,7.50
2023-03-26T19:36:30.618Z,7.44
2023-03-26T19:38:58.268Z,7.35
2023-03-26T19:41:25.823Z,7.40
2023-03-26T19:43:53.402Z,7.35
2023-03-26T19:46:23.086Z,7.37
2023-03-26T19:48:50.621Z,7.51
2023-03-26T19:51:17.500Z,7.61
2023-03-26T19:53:44.827Z,7.64
2023-03-26T19:56:12.385Z,7.64
2023-03-26T19:58:39.973Z,7.68
2023-03-26T20:01:06.402Z,7.76
2023-03-26T20:03:33.263Z,7.76
2023-03-26T20:06:00.735Z,7.63
2023-03-26T20:08:27.326Z,7.39
2023-03-26T20:10:54.402Z,7.42
2023-03-26T20:13:21.537Z,7.44
2023-03-26T20:15:49.124Z,7.57
2023-03-26T20:18:32.769Z,7.68
2023-03-26T20:20:59.214Z,7.74
2023-03-26T20:23:25.641Z,7.76
2023-03-26T20:25:52.128Z,7.76
2023-03-26T20:28:18.605Z,7.59
2023-03-26T20:30:45.079Z,7.69
2023-03-26T20:33:13.560Z,7.71
2023-03-26T20:35:41.929Z,7.77
2023-03-26T20:38:09.815Z,7.80
2023-03-26T20:40:37.092Z,7.90
2023-03-26T20:43:04.667Z,7.94
2023-03-26T20:45:32.279Z,8.00
2023-03-26T20:47:59.909Z,8.02
2023-03-26T20:50:27.892Z,8.04
2023-03-26T20:52:56.049Z,8.03
2023-03-26T20:55:22.484Z,7.99
2023-03-26T20:57:48.976Z,7.99
2023-03-26T21:00:15.401Z,7.91
2023-03-26T21:02:43.271Z,7.82
2023-03-26T21:05:09.905Z,7.81
2023-03-26T21:07:36.332Z,7.74
2023-03-26T21:10:03.194Z,7.75
2023-03-26T21:12:30.824Z,7.74
2023-03-26T21:14:58.453Z,7.81
2023-03-26T21:17:26.098Z,7.87
2023-03-26T21:19:53.600Z,8.00
2023-03-26T21:22:22.204Z,8.12
2023-03-26T21:24:49.783Z,8.22
2023-03-26T21:27:16.396Z,8.27
2023-03-26T21:29:43.247Z,8.29
2023-03-26T21:32:09.724Z,8.24
2023-03-26T21:34:39.686Z,8.07
2023-03-26T21:37:06.873Z,7.95
2023-03-26T21:39:33.768Z,7.97
2023-03-26T21:42:05.248Z,8.01
2023-03-26T21:44:32.686Z,8.02
2023-03-26T21:46:59.161Z,7.98
2023-03-26T21:49:25.869Z,8.01
2023-03-26T21:51:53.464Z,8.02
2023-03-26T21:54:21.049Z,8.05
2023-03-26T21:56:47.648Z,8.08
2023-03-26T21:59:16.293Z,8.08
2023-03-26T22:01:42.803Z,8.05
2023-03-26T22:04:10.702Z,7.89
2023-03-26T22:06:38.016Z,7.78
2023-03-26T22:09:05.629Z,7.53
2023-03-26T22:11:33.194Z,7.65
2023-03-26T22:13:59.885Z,7.70
2023-03-26T22:16:27.497Z,7.80
2023-03-26T22:18:56.096Z,7.92
2023-03-26T22:21:22.700Z,7.99
2023-03-26T22:23:49.303Z,7.96
2023-03-26T22:26:16.884Z,8.02
2023-03-26T22:28:45.478Z,8.06
2023-03-26T22:31:13.146Z,8.11
2023-03-26T22:33:40.712Z,8.13
2023-03-26T22:36:22.239Z,8.10
2023-03-26T22:38:50.034Z,8.05
2023-03-26T22:41:17.550Z,8.02
2023-03-26T22:43:45.145Z,8.01
2023-03-26T22:46:11.761Z,7.94
2023-03-26T22:48:39.325Z,7.86
2023-03-26T22:51:06.942Z,7.81
2023-03-26T22:53:34.530Z,7.73
2023-03-26T22:56:02.128Z,7.66
2023-03-26T22:58:29.728Z,7.57
2023-03-26T23:00:57.427Z,7.51
2023-03-26T23:03:35.056Z,7.45
2023-03-26T23:06:02.562Z,7.49
2023-03-26T23:08:29.188Z,7.50
2023-03-26T23:10:55.957Z,7.47
2023-03-26T23:13:24.381Z,7.44
2023-03-26T23:15:50.838Z,7.44
2023-03-26T23:18:17.551Z,7.39
2023-03-26T23:20:45.160Z,7.24
2023-03-26T23:23:12.760Z,7.12
2023-03-26T23:25:40.326Z,7.17
2023-03-26T23:28:09.435Z,7.04
2023-03-26T23:30:36.506Z,6.83
2023-03-26T23:33:03.125Z,7.01
2023-03-26T23:35:30.681Z,7.15
2023-03-26T23:37:58.273Z,7.30
2023-03-26T23:40:25.873Z,7.45
2023-03-26T23:42:53.461Z,7.43
2023-03-26T23:45:20.038Z,7.55
2023-03-26T23:47:46.561Z,7.65
2023-03-26T23:50:13.174Z,7.72
2023-03-26T23:52:39.632Z,7.63
2023-03-26T23:55:06.417Z,7.67
2023-03-26T23:57:35.310Z,7.65
